createdAt,value
2023-05-13T00:01:09.267Z,6.90
2023-05-13T00:03:36.501Z,7.30
2023-05-13T00:06:06.511Z,7.20
2023-05-13T00:08:33.602Z,6.75
2023-05-13T00:11:03.240Z,7.53
2023-05-13T00:13:30.274Z,7.35
2023-05-13T00:15:59.472Z,7.00
2023-05-13T00:18:26.218Z,7.75
2023-05-13T00:20:56.507Z,7.20
2023-05-13T00:23:23.277Z,7.10
2023-05-13T00:25:54.898Z,6.60
2023-05-13T00:28:21.673Z,6.13
2023-05-13T00:30:49.355Z,6.55
2023-05-13T00:33:16.496Z,5.90
2023-05-13T00:35:43.738Z,6.15
2023-05-13T00:38:10.659Z,5.57
2023-05-13T00:40:39.533Z,7.53
2023-05-13T00:43:06.450Z,7.07
2023-05-13T00:45:33.361Z,7.70
2023-05-13T00:48:00.501Z,6.43
2023-05-13T00:50:27.333Z,6.05
2023-05-13T00:52:54.120Z,7.13
2023-05-13T00:55:21.512Z,7.50
2023-05-13T00:57:48.392Z,5.90
2023-05-13T01:00:15.700Z,6.93
2023-05-13T01:03:02.101Z,5.72
2023-05-13T01:05:39.802Z,6.57
2023-05-13T01:08:14.329Z,7.47
2023-05-13T01:10:59.954Z,6.03
2023-05-13T01:13:28.700Z,6.15
2023-05-13T01:16:18.594Z,5.95
2023-05-13T01:18:49.670Z,6.78
2023-05-13T01:21:16.808Z,6.18
2023-05-13T01:23:43.678Z,6.45
2023-05-13T01:26:10.530Z,6.35
2023-05-13T01:28:37.278Z,6.78
2023-05-13T01:31:04.337Z,6.32
2023-05-13T01:33:31.279Z,6.65
2023-05-13T01:35:59.268Z,6.22
2023-05-13T01:38:26.958Z,7.43
2023-05-13T01:40:53.782Z,6.13
2023-05-13T01:43:20.769Z,7.55
2023-05-13T01:45:47.621Z,6.07
2023-05-13T01:48:14.642Z,5.60
2023-05-13T01:50:41.481Z,6.25
2023-05-13T01:53:08.332Z,6.63
2023-05-13T01:55:35.159Z,6.72
2023-05-13T01:58:01.995Z,6.63
2023-05-13T02:00:28.825Z,7.20
2023-05-13T02:02:55.768Z,6.43
2023-05-13T02:05:23.285Z,6.82
2023-05-13T02:07:50.110Z,6.90
2023-05-13T02:10:16.969Z,6.30
2023-05-13T02:12:43.790Z,5.93
2023-05-13T02:15:11.018Z,5.97
2023-05-13T02:17:37.811Z,6.13
2023-05-13T02:20:05.049Z,5.57
2023-05-13T02:22:32.050Z,5.38
2023-05-13T02:24:58.923Z,5.80
2023-05-13T02:27:28.260Z,7.10
2023-05-13T02:29:55.104Z,5.40
2023-05-13T02:32:22.364Z,5.65
2023-05-13T02:34:49.194Z,6.32
2023-05-13T02:37:16.096Z,6.35
2023-05-13T02:39:42.920Z,5.95
2023-05-13T02:42:09.841Z,6.03
2023-05-13T02:44:36.597Z,6.65
2023-05-13T02:47:03.560Z,6.38
2023-05-13T02:49:30.470Z,5.60
2023-05-13T02:51:57.335Z,6.93
2023-05-13T02:54:24.176Z,6.72
2023-05-13T02:56:51.124Z,6.00
2023-05-13T02:59:17.964Z,6.28
2023-05-13T03:01:45.090Z,6.05
2023-05-13T03:04:11.924Z,6.13
2023-05-13T03:06:38.764Z,5.65
2023-05-13T03:09:05.768Z,6.40
2023-05-13T03:11:32.545Z,6.40
2023-05-13T03:13:59.331Z,6.82
2023-05-13T03:16:26.976Z,6.70
2023-05-13T03:18:57.063Z,7.13
2023-05-13T03:21:24.059Z,6.55
2023-05-13T03:23:50.950Z,6.47
2023-05-13T03:26:19.928Z,6.05
2023-05-13T03:28:46.764Z,5.93
2023-05-13T03:31:13.888Z,6.05
2023-05-13T03:33:41.033Z,5.65
2023-05-13T03:36:08.041Z,5.85
2023-05-13T03:38:34.902Z,5.95
2023-05-13T03:41:07.658Z,5.60
2023-05-13T03:43:34.452Z,6.18
2023-05-13T03:46:01.310Z,5.32
2023-05-13T03:48:28.260Z,6.13
2023-05-13T03:50:55.411Z,5.78
2023-05-13T03:53:22.322Z,5.75
2023-05-13T03:55:49.255Z,6.47
2023-05-13T03:58:18.257Z,6.22
2023-05-13T04:00:48.242Z,6.15
2023-05-13T04:03:18.678Z,6.05
2023-05-13T04:05:48.656Z,6.40
2023-05-13T04:08:16.024Z,6.90
2023-05-13T04:10:42.842Z,5.53
2023-05-13T04:13:09.796Z,6.80
2023-05-13T04:15:37.538Z,5.90
2023-05-13T04:18:04.582Z,6.20
2023-05-13T04:20:31.546Z,6.05
2023-05-13T04:22:58.371Z,6.25
2023-05-13T04:25:25.175Z,6.68
2023-05-13T04:27:51.951Z,6.63
2023-05-13T04:30:19.014Z,6.15
2023-05-13T04:32:46.150Z,6.70
2023-05-13T04:35:13.096Z,6.97
2023-05-13T04:37:40.074Z,6.20
2023-05-13T04:40:08.268Z,6.40
2023-05-13T04:42:35.118Z,6.82
2023-05-13T04:45:02.542Z,6.38
2023-05-13T04:47:29.603Z,6.07
2023-05-13T04:49:56.422Z,6.35
2023-05-13T04:52:23.687Z,6.25
2023-05-13T04:54:50.867Z,6.25
2023-05-13T04:57:17.946Z,6.40
2023-05-13T04:59:44.745Z,5.63
2023-05-13T05:02:11.478Z,6.22
2023-05-13T05:04:38.359Z,5.35
2023-05-13T05:07:05.337Z,6.72
2023-05-13T05:09:32.087Z,6.13
2023-05-13T05:11:58.840Z,7.80
2023-05-13T05:14:26.091Z,6.57
2023-05-13T05:16:52.923Z,6.05
2023-05-13T05:19:24.256Z,6.22
2023-05-13T05:21:54.363Z,6.93
2023-05-13T05:24:21.134Z,5.93
2023-05-13T05:26:48.086Z,6.70
2023-05-13T05:29:15.336Z,6.22
2023-05-13T05:31:42.232Z,7.00
2023-05-13T05:34:10.338Z,6.47
2023-05-13T05:36:38.369Z,6.32
2023-05-13T05:39:05.977Z,6.85
2023-05-13T05:41:33.185Z,6.47
2023-05-13T05:44:02.965Z,6.45
2023-05-13T05:46:29.995Z,7.07
2023-05-13T05:48:56.841Z,7.53
2023-05-13T05:51:23.697Z,7.28
2023-05-13T05:53:52.982Z,6.90
2023-05-13T05:56:19.868Z,6.00
2023-05-13T05:58:46.798Z,5.95
2023-05-13T06:01:19.088Z,6.60
2023-05-13T06:03:46.080Z,6.70
2023-05-13T06:06:16.003Z,6.15
2023-05-13T06:08:42.944Z,6.00
2023-05-13T06:11:09.797Z,6.30
2023-05-13T06:13:36.928Z,6.57
2023-05-13T06:16:04.032Z,6.55
2023-05-13T06:18:31.077Z,6.30
2023-05-13T06:20:57.924Z,6.20
2023-05-13T06:23:24.869Z,6.13
2023-05-13T06:25:54.764Z,5.82
2023-05-13T06:28:21.714Z,5.85
2023-05-13T06:30:48.776Z,6.22
2023-05-13T06:33:23.048Z,6.32
2023-05-13T06:35:49.876Z,7.70
2023-05-13T06:38:23.336Z,6.32
2023-05-13T06:40:50.040Z,4.22
2023-05-13T06:43:18.214Z,5.07
2023-05-13T06:45:44.901Z,5.70
2023-05-13T06:48:11.761Z,5.70
2023-05-13T06:50:38.546Z,6.07
2023-05-13T06:53:07.910Z,5.82
2023-05-13T06:55:41.572Z,5.85
2023-05-13T06:58:08.956Z,5.40
2023-05-13T07:00:48.085Z,5.95
2023-05-13T07:03:15.060Z,6.40
2023-05-13T07:05:41.922Z,6.18
2023-05-13T07:08:08.871Z,5.95
2023-05-13T07:10:38.788Z,5.90
2023-05-13T07:13:05.752Z,6.68
2023-05-13T07:15:33.047Z,6.38
2023-05-13T07:18:18.273Z,6.85
2023-05-13T07:20:51.072Z,6.47
2023-05-13T07:23:27.568Z,6.45
2023-05-13T07:26:02.168Z,6.90
2023-05-13T07:28:29.478Z,6.28
2023-05-13T07:30:59.789Z,6.60
2023-05-13T07:33:41.545Z,5.32
2023-05-13T07:36:37.205Z,5.45
2023-05-13T07:39:04.117Z,5.57
2023-05-13T07:42:02.193Z,5.70
2023-05-13T07:54:23.463Z,5.22
2023-05-13T07:59:47.681Z,5.07
2023-05-13T08:02:25.933Z,5.53
2023-05-13T08:05:26.430Z,5.68
2023-05-13T08:11:06.351Z,5.35
2023-05-13T08:13:44.823Z,4.97
2023-05-13T08:29:07.568Z,6.47
2023-05-13T08:35:32.240Z,5.05
2023-05-13T08:38:13.893Z,5.07
2023-05-13T08:40:55.356Z,5.70
2023-05-13T08:43:37.235Z,5.55
2023-05-13T08:46:35.985Z,6.25
2023-05-13T08:49:30.768Z,6.82
2023-05-13T08:54:36.281Z,6.65
2023-05-13T08:57:08.837Z,5.70
2023-05-13T08:59:38.441Z,6.25
2023-05-13T09:02:05.511Z,5.88
2023-05-13T09:04:34.409Z,5.70
2023-05-13T09:07:01.327Z,5.28
2023-05-13T09:09:28.487Z,5.53
2023-05-13T09:11:57.710Z,6.30
2023-05-13T09:14:28.710Z,5.90
2023-05-13T09:16:57.239Z,5.85
2023-05-13T09:19:27.658Z,5.40
2023-05-13T09:21:54.680Z,6.22
2023-05-13T09:24:21.713Z,5.82
2023-05-13T09:26:49.620Z,5.88
2023-05-13T09:29:33.760Z,6.18
2023-05-13T09:32:01.512Z,5.75
2023-05-13T09:34:32.684Z,5.43
2023-05-13T09:37:08.039Z,5.20
2023-05-13T09:39:43.605Z,5.03
2023-05-13T09:42:17.326Z,5.65
2023-05-13T09:44:47.675Z,5.20
2023-05-13T09:47:14.898Z,4.55
2023-05-13T09:49:43.638Z,5.57
2023-05-13T09:52:20.141Z,4.38
2023-05-13T09:54:47.429Z,5.25
2023-05-13T09:57:17.221Z,5.15
2023-05-13T09:59:46.941Z,5.47
2023-05-13T10:02:17.611Z,4.90
2023-05-13T10:04:44.353Z,4.68
2023-05-13T10:07:11.217Z,5.35
2023-05-13T10:09:41.015Z,5.20
2023-05-13T10:12:08.798Z,5.20
2023-05-13T10:14:37.132Z,5.72
2023-05-13T10:17:07.367Z,4.63
2023-05-13T10:19:34.143Z,5.63
2023-05-13T10:22:01.172Z,5.40
2023-05-13T10:24:29.303Z,4.90
2023-05-13T10:26:59.516Z,5.68
2023-05-13T10:29:26.289Z,4.47
2023-05-13T10:31:53.296Z,5.03
2023-05-13T10:34:23.224Z,5.80
2023-05-13T10:37:27.480Z,5.75
2023-05-13T10:40:04.951Z,4.75
2023-05-13T10:42:43.164Z,5.30
2023-05-13T10:45:10.830Z,4.88
2023-05-13T10:47:40.713Z,4.82
2023-05-13T10:50:28.838Z,4.65
2023-05-13T10:52:57.117Z,4.80
2023-05-13T10:55:24.426Z,4.97
2023-05-13T10:58:12.544Z,4.68
2023-05-13T11:00:45.700Z,4.68
2023-05-13T11:03:18.735Z,3.92
2023-05-13T11:05:58.851Z,4.77
2023-05-13T11:08:38.902Z,4.80
2023-05-13T11:11:21.797Z,4.90
2023-05-13T11:14:17.741Z,4.82
2023-05-13T11:17:04.650Z,5.07
2023-05-13T11:19:33.542Z,4.82
2023-05-13T11:22:18.404Z,5.07
2023-05-13T11:24:47.249Z,5.85
2023-05-13T11:27:18.229Z,5.18
2023-05-13T11:30:21.952Z,5.50
2023-05-13T11:32:56.023Z,5.68
2023-05-13T11:37:51.046Z,6.00
2023-05-13T11:40:24.646Z,5.82
2023-05-13T11:42:51.539Z,4.95
2023-05-13T11:45:21.317Z,6.40
2023-05-13T11:47:48.794Z,5.13
2023-05-13T11:50:27.398Z,5.85
2023-05-13T11:53:00.816Z,5.25
2023-05-13T11:55:28.762Z,5.75
2023-05-13T11:57:55.820Z,5.90
2023-05-13T12:00:27.105Z,5.75
2023-05-13T12:02:54.231Z,5.93
2023-05-13T12:05:21.413Z,6.00
2023-05-13T12:07:48.881Z,5.63
2023-05-13T12:10:15.886Z,5.50
2023-05-13T12:12:49.629Z,5.65
2023-05-13T12:15:17.976Z,5.65
2023-05-13T12:17:45.342Z,5.72
2023-05-13T12:20:19.582Z,6.28
2023-05-13T12:22:46.816Z,6.05
2023-05-13T12:25:55.832Z,6.22
2023-05-13T12:28:23.776Z,6.63
2023-05-13T12:31:00.706Z,5.85
2023-05-13T12:33:31.490Z,6.22
2023-05-13T12:36:26.107Z,5.88
2023-05-13T12:39:03.361Z,5.40
2023-05-13T12:41:35.144Z,6.03
2023-05-13T12:44:03.913Z,5.10
2023-05-13T12:46:31.015Z,5.50
2023-05-13T12:49:01.290Z,5.50
2023-05-13T12:51:31.624Z,5.63
2023-05-13T12:53:58.640Z,5.38
2023-05-13T12:56:26.032Z,5.80
2023-05-13T12:58:55.925Z,8.68
2023-05-13T13:01:22.984Z,6.28
2023-05-13T13:03:50.075Z,5.75
2023-05-13T13:06:17.538Z,5.28
2023-05-13T13:08:44.691Z,5.70
2023-05-13T13:11:15.083Z,5.72
2023-05-13T13:13:50.299Z,5.85
2023-05-13T13:16:17.513Z,5.38
2023-05-13T13:18:46.786Z,5.65
2023-05-13T13:21:13.676Z,5.30
2023-05-13T13:23:42.787Z,5.78
2023-05-13T13:26:09.644Z,5.60
2023-05-13T13:28:36.470Z,5.78
2023-05-13T13:31:03.316Z,6.15
2023-05-13T13:33:34.462Z,5.50
2023-05-13T13:36:04.580Z,5.35
2023-05-13T13:38:31.663Z,5.57
2023-05-13T13:40:58.789Z,5.05
2023-05-13T13:43:34.651Z,5.70
2023-05-13T13:46:01.605Z,6.18
2023-05-13T13:48:28.681Z,5.97
2023-05-13T13:50:55.802Z,6.63
2023-05-13T13:53:22.711Z,5.88
2023-05-13T13:55:49.658Z,7.22
2023-05-13T13:58:16.607Z,5.70
2023-05-13T14:00:43.529Z,6.07
2023-05-13T14:03:21.046Z,5.90
2023-05-13T14:06:07.259Z,6.85
2023-05-13T14:08:34.231Z,6.50
2023-05-13T14:11:01.217Z,6.25
2023-05-13T14:16:09.186Z,6.55
2023-05-13T14:18:36.312Z,5.80
2023-05-13T14:21:03.468Z,6.07
2023-05-13T14:23:30.406Z,6.50
2023-05-13T14:25:59.227Z,6.07
2023-05-13T14:28:26.044Z,5.97
2023-05-13T14:30:53.180Z,6.20
2023-05-13T14:33:20.054Z,6.25
2023-05-13T14:35:46.932Z,7.53
2023-05-13T14:38:13.806Z,6.80
2023-05-13T14:40:40.722Z,6.55
2023-05-13T14:44:16.857Z,6.60
2023-05-13T14:46:17.937Z,6.63
2023-05-13T14:48:44.721Z,7.32
2023-05-13T14:51:12.541Z,7.40
2023-05-13T14:53:39.946Z,7.18
2023-05-13T14:56:07.473Z,7.18
2023-05-13T14:58:34.420Z,7.70
2023-05-13T15:01:01.545Z,7.28
2023-05-13T15:03:28.882Z,8.40
2023-05-13T15:05:56.412Z,7.68
2023-05-13T15:08:23.334Z,7.32
2023-05-13T15:10:50.461Z,7.40
2023-05-13T15:13:18.923Z,7.20
2023-05-13T15:15:46.132Z,7.82
2023-05-13T15:18:13.757Z,7.55
2023-05-13T15:20:45.364Z,8.30
2023-05-13T15:23:13.472Z,8.27
2023-05-13T15:25:43.240Z,7.63
2023-05-13T15:28:10.068Z,8.95
2023-05-13T15:30:42.955Z,7.63
2023-05-13T15:33:13.173Z,7.70
2023-05-13T15:35:42.528Z,8.52
2023-05-13T15:38:13.133Z,7.90
2023-05-13T15:40:43.703Z,9.18
2023-05-13T15:43:10.957Z,8.00
2023-05-13T15:45:40.477Z,8.07
2023-05-13T15:48:07.738Z,8.68
2023-05-13T15:50:35.399Z,8.75
2023-05-13T15:53:04.921Z,8.25
2023-05-13T15:55:34.528Z,8.50
2023-05-13T15:58:01.488Z,9.15
2023-05-13T16:00:30.575Z,8.82
2023-05-13T16:02:57.500Z,9.55
2023-05-13T16:05:24.358Z,8.57
2023-05-13T16:07:51.428Z,8.57
2023-05-13T16:10:19.009Z,8.85
2023-05-13T16:12:54.013Z,9.02
2023-05-13T16:15:24.218Z,9.82
2023-05-13T16:17:52.415Z,8.95
2023-05-13T16:20:22.842Z,8.63
2023-05-13T16:22:52.936Z,8.95
2023-05-13T16:25:19.902Z,8.35
2023-05-13T16:27:47.412Z,8.65
2023-05-13T16:30:15.606Z,7.93
2023-05-13T16:33:06.204Z,8.95
2023-05-13T16:35:38.600Z,8.15
2023-05-13T16:38:17.920Z,8.38
2023-05-13T16:40:54.647Z,7.60
2023-05-13T16:43:25.014Z,7.72
2023-05-13T16:45:53.264Z,8.25
2023-05-13T16:48:20.466Z,8.35
2023-05-13T16:50:51.506Z,8.80
2023-05-13T16:53:22.384Z,8.27
2023-05-13T16:55:52.914Z,8.35
2023-05-13T16:58:20.312Z,7.28
2023-05-13T17:00:49.717Z,8.88
2023-05-13T17:03:16.911Z,8.55
2023-05-13T17:05:46.238Z,7.88
2023-05-13T17:08:13.169Z,8.40
2023-05-13T17:10:40.473Z,8.20
2023-05-13T17:13:10.121Z,8.25
2023-05-13T17:15:36.964Z,7.55
2023-05-13T17:18:03.869Z,7.70
2023-05-13T17:20:31.020Z,8.05
2023-05-13T17:22:57.974Z,8.43
2023-05-13T17:25:27.878Z,7.72
2023-05-13T17:27:54.797Z,7.63
2023-05-13T17:30:28.983Z,7.68
2023-05-13T17:32:56.020Z,8.98
2023-05-13T17:35:23.669Z,8.35
2023-05-13T17:37:50.469Z,8.10
2023-05-13T17:40:17.462Z,7.35
2023-05-13T17:42:44.336Z,8.05
2023-05-13T17:45:11.579Z,7.85
2023-05-13T17:47:38.483Z,9.27
2023-05-13T17:50:05.795Z,10.18
2023-05-13T17:52:32.836Z,8.43
2023-05-13T17:55:00.407Z,9.18
2023-05-13T17:57:27.951Z,8.10
2023-05-13T17:59:55.386Z,8.63
2023-05-13T18:02:22.373Z,9.15
2023-05-13T18:04:49.297Z,8.57
2023-05-13T18:07:16.610Z,8.02
2023-05-13T18:09:47.576Z,8.05
2023-05-13T18:12:15.503Z,8.07
2023-05-13T18:14:42.380Z,9.50
2023-05-13T18:17:09.289Z,8.35
2023-05-13T18:19:36.511Z,8.60
2023-05-13T18:22:05.416Z,7.88
2023-05-13T18:24:32.202Z,8.68
2023-05-13T18:26:58.939Z,8.35
2023-05-13T18:29:25.920Z,9.52
2023-05-13T18:31:52.931Z,8.50
2023-05-13T18:34:19.750Z,8.25
2023-05-13T18:36:46.651Z,8.35
2023-05-13T18:39:13.494Z,8.20
2023-05-13T18:41:40.739Z,7.93
2023-05-13T18:44:07.559Z,8.57
2023-05-13T18:46:34.492Z,7.70
2023-05-13T18:49:04.033Z,8.38
2023-05-13T18:51:37.034Z,7.45
2023-05-13T18:54:06.957Z,5.88
2023-05-13T18:56:37.342Z,8.02
2023-05-13T18:59:04.394Z,7.45
2023-05-13T19:01:31.512Z,8.38
2023-05-13T19:03:58.635Z,8.18
2023-05-13T19:06:25.718Z,7.68
2023-05-13T19:08:52.589Z,8.93
2023-05-13T19:11:19.705Z,8.43
2023-05-13T19:13:47.806Z,9.18
2023-05-13T19:16:15.469Z,8.05
2023-05-13T19:18:43.066Z,7.75
2023-05-13T19:21:12.853Z,8.20
2023-05-13T19:23:42.291Z,8.50
2023-05-13T19:26:09.418Z,7.80
2023-05-13T19:28:37.501Z,8.60
2023-05-13T19:31:04.769Z,9.02
2023-05-13T19:33:31.766Z,8.77
2023-05-13T19:35:58.794Z,7.75
2023-05-13T19:38:25.745Z,8.13
2023-05-13T19:40:53.024Z,9.30
2023-05-13T19:43:19.959Z,9.68
2023-05-13T19:45:46.780Z,9.55
2023-05-13T19:48:13.942Z,9.70
2023-05-13T19:50:41.708Z,8.93
2023-05-13T19:53:08.598Z,9.85
2023-05-13T19:55:38.372Z,9.10
2023-05-13T19:58:05.353Z,8.77
2023-05-13T20:00:32.165Z,8.60
2023-05-13T20:02:58.942Z,9.07
2023-05-13T20:05:26.375Z,9.27
2023-05-13T20:07:53.207Z,9.13
2023-05-13T20:10:23.163Z,9.10
2023-05-13T20:12:50.350Z,8.88
2023-05-13T20:15:23.098Z,8.98
2023-05-13T20:17:49.990Z,9.30
2023-05-13T20:20:17.445Z,9.23
2023-05-13T20:22:51.147Z,9.65
2023-05-13T20:25:24.522Z,8.80
2023-05-13T20:27:54.558Z,8.30
2023-05-13T20:30:21.874Z,9.25
2023-05-13T20:32:49.015Z,9.75
2023-05-13T20:35:15.927Z,9.13
2023-05-13T20:38:03.362Z,9.25
2023-05-13T20:40:34.190Z,9.68
2023-05-13T20:43:05.055Z,9.13
2023-05-13T20:45:32.982Z,8.88
2023-05-13T20:48:01.183Z,8.90
2023-05-13T20:50:28.480Z,8.45
2023-05-13T20:52:57.454Z,9.75
2023-05-13T20:55:27.409Z,9.27
2023-05-13T20:57:57.279Z,10.00
2023-05-13T21:00:27.321Z,10.30
2023-05-13T21:03:04.575Z,8.95
2023-05-13T21:05:39.192Z,10.55
2023-05-13T21:08:06.189Z,9.30
2023-05-13T21:10:33.070Z,9.02
2023-05-13T21:13:01.222Z,8.85
2023-05-13T21:15:28.473Z,10.77
2023-05-13T21:17:58.687Z,8.98
2023-05-13T21:20:25.795Z,10.20
2023-05-13T21:22:52.703Z,9.75
2023-05-13T21:25:19.956Z,9.45
2023-05-13T21:27:48.890Z,8.93
2023-05-13T21:30:15.677Z,9.55
2023-05-13T21:32:49.857Z,8.73
2023-05-13T21:35:19.557Z,9.57
2023-05-13T21:37:47.588Z,9.35
2023-05-13T21:40:14.736Z,9.95
2023-05-13T21:43:13.753Z,8.68
2023-05-13T21:45:40.758Z,9.40
2023-05-13T21:48:09.583Z,10.13
2023-05-13T21:50:36.530Z,9.93
2023-05-13T21:53:04.525Z,9.40
2023-05-13T21:55:39.976Z,9.80
2023-05-13T21:58:13.700Z,9.38
2023-05-13T22:05:56.850Z,10.85
2023-05-13T22:09:01.287Z,10.70
2023-05-13T22:19:48.983Z,9.75
2023-05-13T22:29:21.580Z,11.25
2023-05-13T22:31:48.770Z,11.52
2023-05-13T22:34:15.515Z,11.88
2023-05-13T22:36:43.911Z,11.30
2023-05-13T22:39:12.360Z,10.77
2023-05-13T22:41:39.346Z,10.88
2023-05-13T22:44:06.344Z,11.00
2023-05-13T22:46:33.484Z,11.13
2023-05-13T22:49:00.493Z,11.45
2023-05-13T22:51:27.436Z,11.23
2023-05-13T22:53:57.545Z,10.80
2023-05-13T22:56:24.345Z,10.35
2023-05-13T22:58:51.108Z,11.30
2023-05-13T23:01:20.250Z,12.23
2023-05-13T23:03:49.777Z,12.23
2023-05-13T23:06:16.719Z,11.85
2023-05-13T23:08:43.577Z,11.80
2023-05-13T23:11:13.884Z,11.43
2023-05-13T23:13:40.624Z,11.27
2023-05-13T23:16:07.789Z,11.63
2023-05-13T23:18:34.881Z,11.85
2023-05-13T23:21:02.681Z,12.93
2023-05-13T23:23:29.513Z,12.00
2023-05-13T23:25:56.295Z,12.23
2023-05-13T23:28:23.101Z,11.75
2023-05-13T23:30:53.693Z,10.77
2023-05-13T23:33:20.957Z,12.35
2023-05-13T23:35:53.308Z,11.25
2023-05-13T23:38:20.504Z,11.80
2023-05-13T23:40:47.268Z,12.07
2023-05-13T23:43:17.206Z,11.80
2023-05-13T23:45:44.791Z,12.18
2023-05-13T23:48:13.921Z,11.65
2023-05-13T23:50:43.046Z,12.00
2023-05-13T23:53:09.767Z,12.60
2023-05-13T23:55:39.428Z,12.25
2023-05-13T23:58:06.198Z,13.20
